This is the latest recevied weather packets stored in our database for station/object W4TJP. If no packets are shown the sender has not sent any weather packets the latest 10 day(s).
| Time | Temp. | Humidity | Pressure | Rain* | Wind** | Luminosity | Snow |
|---|---|---|---|---|---|---|---|
| 1777562742 | 14.44° C | 56% | 1015.6 hPa | 0 mm | - | 740 W/m² | - |
| 1777562441 | 13.89° C | 55% | 1015.5 hPa | 0 mm | - | 739 W/m² | - |
| 1777562137 | 13.89° C | 55% | 1015.4 hPa | 0 mm | - | 712 W/m² | - |
| 1777561835 | 13.89° C | 55% | 1015.5 hPa | 0 mm | - | 717 W/m² | - |
| 1777561532 | 13.89° C | 55% | 1015.3 hPa | 0 mm | - | 721 W/m² | - |
| 1777561227 | 14.44° C | 55% | 1015.2 hPa | 0 mm | - | 669 W/m² | - |
| 1777560926 | 13.89° C | 53% | 1015.4 hPa | 0 mm | - | 667 W/m² | - |
| 1777560624 | 13.89° C | 56% | 1015.6 hPa | 0 mm | - | 631 W/m² | - |
| 1777560321 | 13.89° C | 54% | 1015.4 hPa | 0 mm | - | 628 W/m² | - |
| 1777560019 | 13.89° C | 59% | 1015.3 hPa | 0 mm | - | 599 W/m² | - |
| 1777559714 | 13.89° C | 55% | 1015.1 hPa | 0 mm | - | 612 W/m² | - |
| 1777559412 | 13.89° C | 59% | 1015.2 hPa | 0 mm | - | 596 W/m² | - |
| 1777559109 | 14.44° C | 55% | 1014.8 hPa | 0 mm | - | 595 W/m² | - |
| 1777558803 | 13.89° C | 60% | 1015.1 hPa | 0 mm | - | 592 W/m² | - |
| 1777558499 | 13.89° C | 60% | 1014.9 hPa | 0 mm | - | 576 W/m² | - |
| 1777558195 | 13.33° C | 57% | 1014.8 hPa | 0 mm | - | 549 W/m² | - |
| 1777557892 | 13.33° C | 60% | 1014.8 hPa | 0 mm | - | 506 W/m² | - |
| 1777557589 | 13.33° C | 62% | 1015.1 hPa | 0 mm | - | 488 W/m² | - |
| 1777557285 | 13.89° C | 57% | 1015.2 hPa | 0 mm | - | 489 W/m² | - |
| 1777556981 | 13.89° C | 62% | 1015.3 hPa | 0 mm | - | 462 W/m² | - |
| 1777556677 | 13.33° C | 60% | 1015.1 hPa | 0 mm | - | 407 W/m² | - |
| 1777556374 | 13.89° C | 58% | 1014.9 hPa | 0 mm | - | 366 W/m² | - |
| 1777556068 | 12.78° C | 62% | 1015.2 hPa | 0 mm | - | 345 W/m² | - |
| 1777555768 | 12.78° C | 63% | 1015.1 hPa | 0 mm | - | 340 W/m² | - |
| 1777555465 | 12.78° C | 65% | 1014.8 hPa | 0 mm | - | 309 W/m² | - |
* Rain latest hour (hover to see other rain measurements)
** Current wind speed in m/s (hover to see current wind gust speed)